createdAt,value
2022-11-25T00:00:29.203Z,12.73
2022-11-25T00:02:58.129Z,13.63
2022-11-25T00:05:28.464Z,12.17
2022-11-25T00:07:57.192Z,12.60
2022-11-25T00:10:25.963Z,13.03
2022-11-25T00:12:54.676Z,12.50
2022-11-25T00:15:23.434Z,13.03
2022-11-25T00:17:53.672Z,11.93
2022-11-25T00:20:22.604Z,13.10
2022-11-25T00:22:51.321Z,11.80
2022-11-25T00:25:20.059Z,12.60
2022-11-25T00:27:48.751Z,12.50
2022-11-25T00:30:17.690Z,12.10
2022-11-25T00:32:46.428Z,12.77
2022-11-25T00:35:16.746Z,12.40
2022-11-25T00:37:45.485Z,12.30
2022-11-25T00:40:15.066Z,10.53
2022-11-25T00:43:00.884Z,11.93
2022-11-25T00:45:29.726Z,11.07
2022-11-25T00:47:58.466Z,11.60
2022-11-25T00:50:28.578Z,11.33
2022-11-25T00:52:57.312Z,11.50
2022-11-25T00:55:45.998Z,12.07
2022-11-25T00:58:14.653Z,12.00
2022-11-25T01:00:43.352Z,11.67
2022-11-25T01:03:13.201Z,10.60
2022-11-25T01:05:43.312Z,11.00
2022-11-25T01:08:12.086Z,10.17
2022-11-25T01:10:40.845Z,10.00
2022-11-25T01:13:09.523Z,10.50
2022-11-25T01:15:38.986Z,11.80
2022-11-25T01:18:07.772Z,10.13
2022-11-25T01:20:36.509Z,10.73
2022-11-25T01:23:06.674Z,10.37
2022-11-25T01:25:38.697Z,10.00
2022-11-25T01:28:07.597Z,9.63
2022-11-25T01:30:41.046Z,10.47
2022-11-25T01:33:10.091Z,9.37
2022-11-25T01:35:39.288Z,8.67
2022-11-25T01:38:09.357Z,9.80
2022-11-25T01:40:38.152Z,17.73
2022-11-25T01:43:12.443Z,11.87
2022-11-25T01:45:41.692Z,12.37
2022-11-25T01:48:17.476Z,11.70
2022-11-25T01:50:49.288Z,10.20
2022-11-25T01:53:22.590Z,10.30
2022-11-25T01:55:55.028Z,10.10
2022-11-25T01:58:27.461Z,9.60
2022-11-25T02:00:56.252Z,9.50
2022-11-25T02:03:29.023Z,9.00
2022-11-25T02:06:05.877Z,8.97
2022-11-25T02:08:35.989Z,8.30
2022-11-25T02:11:05.782Z,8.70
2022-11-25T02:13:35.267Z,9.10
2022-11-25T02:16:03.936Z,9.33
2022-11-25T02:18:32.811Z,8.80
2022-11-25T02:21:01.818Z,8.23
2022-11-25T02:23:39.992Z,8.07
2022-11-25T02:26:10.606Z,8.40
2022-11-25T02:28:40.146Z,9.27
2022-11-25T02:31:09.316Z,8.77
2022-11-25T02:33:38.129Z,9.93
2022-11-25T02:36:12.230Z,10.63
2022-11-25T02:38:44.606Z,8.77
2022-11-25T02:41:17.822Z,10.13
2022-11-25T02:43:46.727Z,10.17
2022-11-25T02:46:21.905Z,9.77
2022-11-25T02:49:09.194Z,9.43
2022-11-25T02:51:38.950Z,8.87
2022-11-25T02:54:08.417Z,9.60
2022-11-25T02:56:40.130Z,9.47
2022-11-25T02:59:09.799Z,7.77
2022-11-25T03:01:39.371Z,8.03
2022-11-25T03:04:08.630Z,6.67
2022-11-25T03:06:37.591Z,8.30
2022-11-25T03:09:06.301Z,7.00
2022-11-25T03:11:52.536Z,8.13
2022-11-25T03:14:22.743Z,7.93
2022-11-25T03:16:51.465Z,7.87
2022-11-25T03:19:20.189Z,7.73
2022-11-25T03:21:48.922Z,7.20
2022-11-25T03:24:17.633Z,7.90
2022-11-25T03:26:46.362Z,7.47
2022-11-25T03:29:15.050Z,7.90
2022-11-25T03:31:45.260Z,8.80
2022-11-25T03:34:14.206Z,6.70
2022-11-25T03:36:42.985Z,7.17
2022-11-25T03:39:11.751Z,6.90
2022-11-25T03:41:40.508Z,8.40
2022-11-25T03:44:09.337Z,7.73
2022-11-25T03:46:38.087Z,7.40
2022-11-25T03:49:08.346Z,6.90
2022-11-25T03:51:37.074Z,7.07
2022-11-25T03:54:05.802Z,7.93
2022-11-25T03:56:34.529Z,8.50
2022-11-25T03:59:03.250Z,8.23
2022-11-25T04:01:32.103Z,6.50
2022-11-25T04:04:00.853Z,7.30
2022-11-25T04:06:32.147Z,6.97
2022-11-25T04:09:00.805Z,7.17
2022-11-25T04:11:43.311Z,8.10
2022-11-25T04:14:11.985Z,8.67
2022-11-25T04:16:40.823Z,6.60
2022-11-25T04:19:09.635Z,7.27
2022-11-25T04:21:39.747Z,6.80
2022-11-25T04:24:09.166Z,7.20
2022-11-25T04:26:37.925Z,6.60
2022-11-25T04:29:07.322Z,6.80
2022-11-25T04:31:39.871Z,7.87
2022-11-25T04:34:14.859Z,7.53
2022-11-25T04:36:46.521Z,7.30
2022-11-25T04:39:17.201Z,7.40
2022-11-25T04:41:48.188Z,7.63
2022-11-25T04:44:27.055Z,8.20
2022-11-25T04:47:07.239Z,7.80
2022-11-25T04:49:40.015Z,8.20
2022-11-25T04:52:13.746Z,7.37
2022-11-25T04:54:46.326Z,8.20
2022-11-25T04:57:19.643Z,8.03
2022-11-25T04:59:49.774Z,7.70
2022-11-25T05:02:22.364Z,8.90
2022-11-25T05:04:54.107Z,9.60
2022-11-25T05:07:28.987Z,14.30
2022-11-25T05:09:59.268Z,8.43
2022-11-25T05:12:30.967Z,9.20
2022-11-25T05:15:01.274Z,6.57
2022-11-25T05:17:32.852Z,7.47
2022-11-25T05:20:05.207Z,9.10
2022-11-25T05:22:42.083Z,8.07
2022-11-25T05:25:25.300Z,8.10
2022-11-25T05:27:56.387Z,6.53
2022-11-25T05:30:26.077Z,6.13
2022-11-25T05:32:55.663Z,8.17
2022-11-25T05:35:25.509Z,6.60
2022-11-25T05:37:56.922Z,8.00
2022-11-25T05:40:28.441Z,7.47
2022-11-25T05:42:58.432Z,7.97
2022-11-25T05:45:28.458Z,7.77
2022-11-25T05:47:58.012Z,6.77
2022-11-25T05:50:27.632Z,7.23
2022-11-25T05:52:58.601Z,7.93
2022-11-25T05:55:29.669Z,6.30
2022-11-25T05:58:00.777Z,7.60
2022-11-25T06:00:30.859Z,7.67
2022-11-25T06:02:59.743Z,8.07
2022-11-25T06:05:29.050Z,8.70
2022-11-25T06:07:59.930Z,9.17
2022-11-25T06:10:29.210Z,6.53
2022-11-25T06:12:58.194Z,7.10
2022-11-25T06:15:27.529Z,6.17
2022-11-25T06:17:57.383Z,6.77
2022-11-25T06:20:27.359Z,6.07
2022-11-25T06:22:56.639Z,5.80
2022-11-25T06:25:27.425Z,6.20
2022-11-25T06:28:12.367Z,5.40
2022-11-25T06:31:14.038Z,7.07
2022-11-25T06:40:42.867Z,10.53
2022-11-25T06:43:11.479Z,6.90
2022-11-25T06:45:40.065Z,7.87
2022-11-25T06:48:08.799Z,6.33
2022-11-25T06:50:37.448Z,6.23
2022-11-25T06:53:06.341Z,7.60
2022-11-25T06:55:35.006Z,6.67
2022-11-25T06:58:28.277Z,7.00
2022-11-25T07:00:53.715Z,6.10
2022-11-25T07:03:22.754Z,7.57
2022-11-25T07:05:51.682Z,6.40
2022-11-25T07:08:22.560Z,6.87
2022-11-25T07:10:51.414Z,6.23
2022-11-25T07:13:21.791Z,7.37
2022-11-25T07:15:50.504Z,8.20
2022-11-25T07:18:19.299Z,12.17
2022-11-25T07:20:48.217Z,7.77
2022-11-25T07:23:16.910Z,10.57
2022-11-25T07:25:45.514Z,18.50
2022-11-25T07:28:14.397Z,18.00
2022-11-25T07:33:33.764Z,18.77
2022-11-25T07:36:04.652Z,16.93
2022-11-25T07:38:33.977Z,17.33
2022-11-25T07:41:07.407Z,24.07
2022-11-25T07:43:36.634Z,24.93
2022-11-25T07:46:16.571Z,26.10
2022-11-25T07:48:47.278Z,25.13
2022-11-25T07:51:17.463Z,21.07
2022-11-25T07:53:46.174Z,21.43
2022-11-25T07:56:16.094Z,19.33
2022-11-25T07:58:46.309Z,20.43
2022-11-25T08:01:18.583Z,18.10
2022-11-25T08:03:48.851Z,16.87
2022-11-25T08:06:20.550Z,18.30
2022-11-25T08:08:49.845Z,18.27
2022-11-25T08:11:20.784Z,19.60
2022-11-25T08:13:50.023Z,19.17
2022-11-25T08:16:22.145Z,17.50
2022-11-25T08:18:51.223Z,17.47
2022-11-25T08:21:20.462Z,17.07
2022-11-25T08:23:50.586Z,19.17
2022-11-25T08:26:21.744Z,18.70
2022-11-25T08:28:50.819Z,19.40
2022-11-25T08:31:22.574Z,19.77
2022-11-25T08:33:52.144Z,19.87
2022-11-25T08:36:21.494Z,19.73
2022-11-25T08:38:52.467Z,17.30
2022-11-25T08:41:23.509Z,17.43
2022-11-25T08:43:52.817Z,19.00
2022-11-25T08:46:24.922Z,18.10
2022-11-25T08:48:53.707Z,17.63
2022-11-25T08:51:25.987Z,17.70
2022-11-25T08:53:55.068Z,19.70
2022-11-25T08:56:26.471Z,20.10
2022-11-25T08:58:55.733Z,16.30
2022-11-25T09:01:28.159Z,15.47
2022-11-25T09:03:58.244Z,16.70
2022-11-25T09:06:28.201Z,17.13
2022-11-25T09:08:57.842Z,16.10
2022-11-25T09:11:26.898Z,16.80
2022-11-25T09:13:55.763Z,14.80
2022-11-25T09:16:26.923Z,16.10
2022-11-25T09:18:56.527Z,15.13
2022-11-25T09:21:25.929Z,14.47
2022-11-25T09:23:55.744Z,16.10
2022-11-25T09:26:26.735Z,14.90
2022-11-25T09:28:56.705Z,13.77
2022-11-25T09:31:27.334Z,15.97
2022-11-25T09:34:00.217Z,14.73
2022-11-25T09:36:29.900Z,15.43
2022-11-25T09:39:06.451Z,15.07
2022-11-25T09:42:12.057Z,13.80
2022-11-25T09:45:10.957Z,16.10
2022-11-25T09:47:58.266Z,15.73
2022-11-25T09:50:44.075Z,13.93
2022-11-25T09:53:30.042Z,15.60
2022-11-25T09:56:13.538Z,13.57
2022-11-25T09:59:14.275Z,16.27
2022-11-25T10:02:07.280Z,14.17
2022-11-25T10:04:50.859Z,13.63
2022-11-25T10:07:46.005Z,15.70
2022-11-25T10:10:30.962Z,13.27
2022-11-25T10:13:35.732Z,13.87
2022-11-25T10:16:51.236Z,12.50
2022-11-25T10:19:38.846Z,13.40
2022-11-25T10:22:39.819Z,12.00
2022-11-25T10:25:38.380Z,10.00
2022-11-25T10:28:30.779Z,10.03
2022-11-25T10:31:10.532Z,10.43
2022-11-25T10:33:46.976Z,10.40
2022-11-25T10:36:23.926Z,9.33
2022-11-25T10:39:02.084Z,8.00
2022-11-25T10:42:02.006Z,7.77
2022-11-25T10:44:41.912Z,7.90
2022-11-25T10:47:39.886Z,7.87
2022-11-25T10:50:34.627Z,6.97
2022-11-25T10:53:13.537Z,8.80
2022-11-25T10:56:09.864Z,8.13
2022-11-25T10:58:52.798Z,7.40
2022-11-25T11:01:26.569Z,7.23
2022-11-25T11:04:23.116Z,6.47
2022-11-25T11:07:11.623Z,6.60
2022-11-25T11:09:59.446Z,5.93
2022-11-25T11:12:33.805Z,6.80
2022-11-25T11:15:27.037Z,6.43
2022-11-25T11:17:58.970Z,7.37
2022-11-25T11:20:31.496Z,6.40
2022-11-25T11:23:09.292Z,5.63
2022-11-25T11:25:43.219Z,6.00
2022-11-25T11:28:40.720Z,7.37
2022-11-25T11:31:23.233Z,5.83
2022-11-25T11:34:02.315Z,6.80
2022-11-25T11:36:46.527Z,6.30
2022-11-25T11:39:51.799Z,5.80
2022-11-25T11:42:33.551Z,5.07
2022-11-25T11:45:18.639Z,6.50
2022-11-25T11:48:06.384Z,6.20
2022-11-25T11:50:44.785Z,5.40
2022-11-25T11:53:26.016Z,5.93
2022-11-25T11:56:33.601Z,5.67
2022-11-25T11:59:19.262Z,5.33
2022-11-25T12:02:03.031Z,5.23
2022-11-25T12:04:44.752Z,4.80
2022-11-25T12:07:22.279Z,4.93
2022-11-25T12:10:01.094Z,6.10
2022-11-25T12:12:41.652Z,4.23
2022-11-25T12:15:28.943Z,5.23
2022-11-25T12:18:20.191Z,5.33
2022-11-25T12:21:05.069Z,4.10
2022-11-25T12:23:47.459Z,6.40
2022-11-25T12:26:27.203Z,6.53
2022-11-25T12:29:01.332Z,5.23
2022-11-25T12:31:38.732Z,4.50
2022-11-25T12:34:15.213Z,3.83
2022-11-25T12:36:51.791Z,4.60
2022-11-25T12:39:31.512Z,4.70
2022-11-25T12:42:18.526Z,5.60
2022-11-25T12:48:58.170Z,4.60
2022-11-25T12:52:38.630Z,4.93
2022-11-25T12:55:38.121Z,5.30
2022-11-25T12:58:48.893Z,7.23
2022-11-25T13:01:53.253Z,6.67
2022-11-25T13:05:32.844Z,4.57
2022-11-25T13:08:35.718Z,5.70
2022-11-25T13:11:57.384Z,5.40
2022-11-25T13:15:02.386Z,6.50
2022-11-25T13:18:05.067Z,6.80
2022-11-25T13:20:50.557Z,6.13
2022-11-25T13:24:11.254Z,6.37
2022-11-25T13:26:54.408Z,5.97
2022-11-25T13:30:04.981Z,6.63
2022-11-25T13:32:42.255Z,5.50
2022-11-25T13:35:39.366Z,5.50
2022-11-25T13:38:38.104Z,5.27
2022-11-25T13:41:33.629Z,5.30
2022-11-25T13:44:07.341Z,4.33
2022-11-25T13:46:43.615Z,4.90
2022-11-25T13:49:29.425Z,5.67
2022-11-25T13:52:01.090Z,4.60
2022-11-25T13:54:38.068Z,4.97
2022-11-25T13:57:28.803Z,5.73
2022-11-25T14:00:00.392Z,4.80
2022-11-25T14:02:46.803Z,5.53
2022-11-25T14:05:48.785Z,5.70
2022-11-25T14:08:27.816Z,7.20
2022-11-25T14:11:20.266Z,6.80
2022-11-25T14:14:21.756Z,6.53
2022-11-25T14:17:06.502Z,5.60
2022-11-25T14:20:05.236Z,6.33
2022-11-25T14:23:09.352Z,6.47
2022-11-25T14:25:49.570Z,7.07
2022-11-25T14:28:30.579Z,6.13
2022-11-25T14:31:05.108Z,6.87
2022-11-25T14:33:38.149Z,6.37
2022-11-25T14:36:12.274Z,8.53
2022-11-25T14:38:49.756Z,8.10
2022-11-25T14:41:21.176Z,6.67
2022-11-25T14:43:55.317Z,6.77
2022-11-25T14:46:25.879Z,7.20
2022-11-25T14:48:57.629Z,8.97
2022-11-25T14:51:28.245Z,10.57
2022-11-25T14:53:57.794Z,9.50
2022-11-25T14:56:30.183Z,8.87
2022-11-25T14:59:00.434Z,10.17
2022-11-25T15:01:30.732Z,11.07
2022-11-25T15:04:16.461Z,9.77
2022-11-25T15:06:51.668Z,9.20
2022-11-25T15:09:23.689Z,10.60
2022-11-25T15:11:58.159Z,11.70
2022-11-25T15:14:29.117Z,11.10
2022-11-25T15:16:59.133Z,13.53
2022-11-25T15:19:35.287Z,11.57
2022-11-25T15:22:24.786Z,10.97
2022-11-25T15:24:58.661Z,11.40
2022-11-25T15:27:36.843Z,14.07
2022-11-25T15:30:28.562Z,12.27
2022-11-25T15:33:03.929Z,12.50
2022-11-25T15:35:42.110Z,13.40
2022-11-25T15:38:39.945Z,14.73
2022-11-25T15:41:21.649Z,16.23
2022-11-25T15:43:59.666Z,14.80
2022-11-25T15:46:31.341Z,12.80
2022-11-25T15:49:03.940Z,11.87
2022-11-25T15:51:42.460Z,14.00
2022-11-25T15:54:26.104Z,26.87
2022-11-25T15:57:03.885Z,12.67
2022-11-25T15:59:48.090Z,12.10
2022-11-25T16:02:39.475Z,11.57
2022-11-25T16:05:23.068Z,12.47
2022-11-25T16:08:34.194Z,11.67
2022-11-25T16:11:16.537Z,12.70
2022-11-25T16:13:50.018Z,14.30
2022-11-25T16:16:28.888Z,12.77
2022-11-25T16:19:21.617Z,13.37
2022-11-25T16:22:12.163Z,14.13
2022-11-25T16:24:49.306Z,12.50
2022-11-25T16:27:21.102Z,12.33
2022-11-25T16:29:53.084Z,13.60
2022-11-25T16:32:26.528Z,14.93
2022-11-25T16:34:58.181Z,13.50
2022-11-25T16:37:27.312Z,15.00
2022-11-25T16:39:57.846Z,16.80
2022-11-25T16:42:27.153Z,14.83
2022-11-25T16:44:56.140Z,14.00
2022-11-25T16:47:26.446Z,14.77
2022-11-25T16:49:58.128Z,16.80
2022-11-25T16:52:27.211Z,16.27
2022-11-25T16:55:00.480Z,17.80
2022-11-25T16:57:36.760Z,18.57
2022-11-25T17:00:10.705Z,18.40
2022-11-25T17:02:39.713Z,17.67
2022-11-25T17:05:18.016Z,17.87
2022-11-25T17:07:47.106Z,19.00
2022-11-25T17:10:18.111Z,17.30
2022-11-25T17:12:50.864Z,17.20
2022-11-25T17:15:24.738Z,17.30
2022-11-25T17:17:55.477Z,18.20
2022-11-25T17:20:26.170Z,17.60
2022-11-25T17:22:55.821Z,16.87
2022-11-25T17:25:33.714Z,17.47
2022-11-25T17:28:05.951Z,18.37
2022-11-25T17:30:35.069Z,20.20
2022-11-25T17:33:06.278Z,18.40
2022-11-25T17:35:36.257Z,19.03
2022-11-25T17:38:14.333Z,20.13
2022-11-25T17:40:46.190Z,21.03
2022-11-25T17:43:17.779Z,20.40
2022-11-25T17:45:47.609Z,20.33
2022-11-25T17:48:19.023Z,18.13
2022-11-25T17:50:47.972Z,19.17
2022-11-25T17:53:16.648Z,18.27
2022-11-25T17:55:46.766Z,20.13
2022-11-25T17:58:19.248Z,20.23
2022-11-25T18:00:50.389Z,17.77
2022-11-25T18:03:19.959Z,19.17
2022-11-25T18:05:49.440Z,20.37
2022-11-25T18:08:18.904Z,20.23
2022-11-25T18:10:52.835Z,19.00
2022-11-25T18:13:22.406Z,19.77
2022-11-25T18:16:02.939Z,24.47
2022-11-25T18:18:32.305Z,24.00
2022-11-25T18:21:01.661Z,20.83
2022-11-25T18:23:30.871Z,19.60
2022-11-25T18:26:03.425Z,19.13
2022-11-25T18:28:33.815Z,18.97
2022-11-25T18:31:05.924Z,19.93
2022-11-25T18:33:35.329Z,19.13
2022-11-25T18:36:04.538Z,19.37
2022-11-25T18:38:33.544Z,20.90
2022-11-25T18:41:04.087Z,20.77
2022-11-25T18:43:34.960Z,18.67
2022-11-25T18:46:05.030Z,20.00
2022-11-25T18:48:34.371Z,20.40
2022-11-25T18:51:03.089Z,19.50
2022-11-25T18:53:32.265Z,21.93
2022-11-25T18:56:02.708Z,27.27
2022-11-25T18:58:32.927Z,22.23
2022-11-25T19:01:05.734Z,27.57
2022-11-25T19:03:34.591Z,27.57
2022-11-25T19:06:03.613Z,23.13
2022-11-25T19:08:32.713Z,25.20
2022-11-25T19:11:02.991Z,22.40
2022-11-25T19:13:34.860Z,22.97
2022-11-25T19:16:08.702Z,23.83
2022-11-25T19:18:37.783Z,28.33
2022-11-25T19:21:06.977Z,30.70
2022-11-25T19:23:36.166Z,25.93
2022-11-25T19:26:14.491Z,25.73
2022-11-25T19:28:44.424Z,25.47
2022-11-25T19:31:14.328Z,24.47
2022-11-25T19:33:46.970Z,25.20
2022-11-25T19:36:23.472Z,22.60
2022-11-25T19:38:52.213Z,21.70
2022-11-25T19:41:22.677Z,22.63
2022-11-25T19:43:51.505Z,22.70
2022-11-25T19:46:30.067Z,20.27
2022-11-25T19:49:03.953Z,25.03
2022-11-25T19:51:35.310Z,24.50
2022-11-25T19:54:04.050Z,24.17
2022-11-25T19:56:37.465Z,23.57
2022-11-25T19:59:06.075Z,22.37
2022-11-25T20:01:37.136Z,24.23
2022-11-25T20:04:06.935Z,22.83
2022-11-25T20:06:35.855Z,23.10
2022-11-25T20:09:07.907Z,21.60
2022-11-25T20:11:38.336Z,20.40
2022-11-25T20:14:07.345Z,23.27
2022-11-25T20:16:38.610Z,19.57
2022-11-25T20:19:08.332Z,21.60
2022-11-25T20:21:39.878Z,19.80
2022-11-25T20:24:15.405Z,18.33
2022-11-25T20:26:48.594Z,18.27
2022-11-25T20:29:19.339Z,19.77
2022-11-25T20:31:48.945Z,19.37
2022-11-25T20:34:17.853Z,19.60
2022-11-25T20:36:46.834Z,18.20
2022-11-25T20:39:20.110Z,19.37
2022-11-25T20:41:52.852Z,16.60
2022-11-25T20:44:22.932Z,17.63
2022-11-25T20:46:51.872Z,14.67
2022-11-25T20:49:27.651Z,23.57
2022-11-25T20:51:56.676Z,39.77
2022-11-25T20:54:25.705Z,30.10
2022-11-25T20:56:57.394Z,40.20
2022-11-25T20:59:26.417Z,17.00
2022-11-25T21:01:55.596Z,23.30
2022-11-25T21:04:24.667Z,14.37
2022-11-25T21:06:53.587Z,22.30
2022-11-25T21:09:33.115Z,28.27
2022-11-25T21:12:03.756Z,26.90
2022-11-25T21:14:32.906Z,18.07
2022-11-25T21:17:01.539Z,12.53
2022-11-25T21:19:30.275Z,11.47
2022-11-25T21:21:59.187Z,13.30
2022-11-25T21:24:33.446Z,13.10
2022-11-25T21:27:09.970Z,14.33
2022-11-25T21:29:43.164Z,14.03
2022-11-25T21:32:20.772Z,15.30
2022-11-25T21:34:49.780Z,14.57
2022-11-25T21:37:20.708Z,12.57
2022-11-25T21:39:49.508Z,13.67
2022-11-25T21:42:22.596Z,15.10
2022-11-25T21:44:52.541Z,13.10
2022-11-25T21:47:25.045Z,20.10
2022-11-25T21:49:54.898Z,12.90
2022-11-25T21:52:23.668Z,17.80
2022-11-25T21:54:52.472Z,20.60
2022-11-25T21:57:29.689Z,19.30
2022-11-25T22:00:23.113Z,13.60
2022-11-25T22:02:55.223Z,14.97
2022-11-25T22:05:26.819Z,12.97
2022-11-25T22:08:04.747Z,12.87
2022-11-25T22:10:38.375Z,12.17
2022-11-25T22:13:27.148Z,13.73
2022-11-25T22:16:01.916Z,12.77
2022-11-25T22:18:39.205Z,10.63
2022-11-25T22:21:10.828Z,13.00
2022-11-25T22:23:45.826Z,10.87
2022-11-25T22:26:25.217Z,12.10
2022-11-25T22:29:06.458Z,11.57
2022-11-25T22:31:43.643Z,13.47
2022-11-25T22:34:23.903Z,11.90
2022-11-25T22:37:02.092Z,13.50
2022-11-25T22:39:44.390Z,11.17
2022-11-25T22:42:24.860Z,11.13
2022-11-25T22:45:09.483Z,11.43
2022-11-25T22:47:49.130Z,12.10
2022-11-25T22:50:27.661Z,12.60
2022-11-25T22:53:06.636Z,12.00
2022-11-25T22:55:39.905Z,12.73
2022-11-25T22:58:13.581Z,14.00
2022-11-25T23:00:54.696Z,13.20
2022-11-25T23:03:30.407Z,14.10
2022-11-25T23:06:06.174Z,17.00
2022-11-25T23:08:38.396Z,14.70
2022-11-25T23:11:15.518Z,13.57
2022-11-25T23:13:51.765Z,13.00
2022-11-25T23:16:28.217Z,15.20
2022-11-25T23:18:57.536Z,13.37
2022-11-25T23:21:29.740Z,12.90
2022-11-25T23:24:02.403Z,10.70
2022-11-25T23:26:35.052Z,12.10
2022-11-25T23:29:12.304Z,11.30
2022-11-25T23:31:49.494Z,11.80
2022-11-25T23:34:18.829Z,12.47
2022-11-25T23:36:49.737Z,11.83
2022-11-25T23:39:23.532Z,12.80
2022-11-25T23:41:58.976Z,11.97
2022-11-25T23:44:34.088Z,11.93
2022-11-25T23:47:07.079Z,13.00
2022-11-25T23:49:42.223Z,10.80
2022-11-25T23:52:20.039Z,11.20
2022-11-25T23:54:54.287Z,12.10
2022-11-25T23:57:26.349Z,13.00
